Time;durP1;ratioP1;P1;durP2;ratioP2;P2;SDS_P1;SDS_P2;PMS_P1;PMS_P2;Temp;Humidity;BMP_temperature;BMP_pressure;BME280_temperature;BME280_humidity;BME280_pressure;Samples;Min_cycle;Max_cycle;Signal;HPM_P1;HPM_P2
2023/02/09 00:02:24;;;;;;;;;;;;;;;1.51;100.00;102875.25;4937895;29;19965;-68
2023/02/09 00:04:49;;;;;;;;;;;;;;;1.50;100.00;102868.28;4937678;29;19946;-68
2023/02/09 00:07:14;;;;;;;;;;;;;;;1.50;100.00;102868.28;4938377;29;19915;-68
2023/02/09 00:09:41;;;;;;;;;;;;;;;1.44;100.00;102857.97;4937546;29;19922;-69
2023/02/09 00:14:50;;;;;;;;;;;;;;;1.44;100.00;102852.72;4937692;29;19915;-68
2023/02/09 00:17:15;;;;;;;;;;;;;;;1.42;100.00;102854.53;4937322;29;19925;-68
2023/02/09 00:19:41;;;;;;;;;;;;;;;1.44;100.00;102851.84;4937460;29;19911;-68
2023/02/09 00:22:06;;;;;;;;;;;;;;;1.43;100.00;102840.50;4937255;29;19917;-68
2023/02/09 00:24:31;;;;;;;;;;;;;;;1.43;100.00;102848.38;4937425;29;19910;-68
2023/02/09 00:26:56;;;;;;;;;;;;;;;1.43;100.00;102840.50;4937729;29;20403;-69
2023/02/09 00:29:22;;;;;;;;;;;;;;;1.44;100.00;102846.59;4937163;29;20354;-67
2023/02/09 00:31:49;;;;;;;;;;;;;;;1.41;100.00;102842.31;4937178;29;20414;-68
2023/02/09 00:34:15;;;;;;;;;;;;;;;1.45;100.00;102843.97;4937062;29;19910;-68
2023/02/09 00:36:40;;;;;;;;;;;;;;;1.45;100.00;102837.84;4937635;29;19911;-68
2023/02/09 00:39:06;;;;;;;;;;;;;;;1.44;100.00;102823.84;4937908;29;19918;-67
2023/02/09 00:44:22;;;;;;;;;;;;;;;1.49;100.00;102814.06;4907870;29;19997;-68
2023/02/09 00:46:48;;;;;;;;;;;;;;;1.53;100.00;102814.78;4936511;29;19957;-69
2023/02/09 00:49:14;;;;;;;;;;;;;;;1.53;100.00;102807.78;4937008;29;19918;-67
2023/02/09 00:51:39;;;;;;;;;;;;;;;1.52;100.00;102805.22;4936933;29;20001;-69
2023/02/09 00:54:04;;;;;;;;;;;;;;;1.51;100.00;102793.84;4936874;29;20367;-68
2023/02/09 00:56:30;;;;;;;;;;;;;;;1.48;100.00;102787.84;4936847;29;20291;-68
2023/02/09 00:58:55;;;;;;;;;;;;;;;1.41;100.00;102784.56;4936734;29;19911;-67
2023/02/09 01:01:20;;;;;;;;;;;;;;;1.41;100.00;102788.94;4919431;29;19965;-66
2023/02/09 01:03:46;;;;;;;;;;;;;;;1.41;100.00;102788.94;4936752;29;19921;-67
2023/02/09 01:06:11;;;;;;;;;;;;;;;1.36;100.00;102781.25;4946477;29;19914;-67
2023/02/09 01:08:37;;;;;;;;;;;;;;;1.31;100.00;102774.44;4955779;29;19981;-67
2023/02/09 01:11:09;;;;;;;;;;;;;;;1.28;100.00;102766.69;4955357;29;19921;-68
2023/02/09 01:13:35;;;;;;;;;;;;;;;1.26;100.00;102769.38;4955852;29;19917;-68
2023/02/09 01:16:05;;;;;;;;;;;;;;;1.26;100.00;102761.50;4958701;29;19918;-67
2023/02/09 01:18:33;;;;;;;;;;;;;;;1.25;100.00;102767.66;4959892;29;19914;-66
2023/02/09 01:20:59;;;;;;;;;;;;;;;1.24;100.00;102761.53;4959843;29;19978;-67
2023/02/09 01:23:24;;;;;;;;;;;;;;;1.27;100.00;102757.94;4959463;29;20327;-70
2023/02/09 01:25:49;;;;;;;;;;;;;;;1.27;100.00;102763.19;4957718;29;19910;-68
2023/02/09 01:28:15;;;;;;;;;;;;;;;1.29;100.00;102750.88;4954909;29;19950;-67
2023/02/09 01:30:40;;;;;;;;;;;;;;;1.34;100.00;102753.34;4955088;29;20358;-68
2023/02/09 01:33:05;;;;;;;;;;;;;;;1.33;100.00;102741.13;4955395;29;19914;-67
2023/02/09 01:35:31;;;;;;;;;;;;;;;1.34;100.00;102746.31;4955492;29;19918;-71
2023/02/09 01:37:56;;;;;;;;;;;;;;;1.32;100.00;102739.41;4955285;29;19914;-68
2023/02/09 01:40:21;;;;;;;;;;;;;;;1.32;100.00;102736.78;4955150;29;20009;-68
2023/02/09 01:42:46;;;;;;;;;;;;;;;1.31;100.00;102737.69;4955066;29;19910;-69
2023/02/09 01:45:20;;;;;;;;;;;;;;;1.33;100.00;102735.88;4955102;29;19917;-70
2023/02/09 01:47:48;;;;;;;;;;;;;;;1.34;100.00;102733.19;4955155;29;19996;-68
2023/02/09 01:50:14;;;;;;;;;;;;;;;1.38;100.00;102729.53;4954881;29;19917;-68
2023/02/09 01:52:41;;;;;;;;;;;;;;;1.40;100.00;102732.97;4955041;29;19910;-70
2023/02/09 01:55:09;;;;;;;;;;;;;;;1.42;100.00;102728.50;4954907;29;20029;-68
2023/02/09 01:57:36;;;;;;;;;;;;;;;1.46;100.00;102727.50;4954023;28;19936;-69
2023/02/09 02:00:04;;;;;;;;;;;;;;;1.50;100.00;102726.47;4954760;29;20282;-69
2023/02/09 02:02:30;;;;;;;;;;;;;;;1.47;100.00;102715.25;4955215;29;20382;-68
2023/02/09 02:04:55;;;;;;;;;;;;;;;1.49;100.00;102719.53;4921881;29;19980;-68
2023/02/09 02:07:31;;;;;;;;;;;;;;;1.47;100.00;102718.72;4954514;29;19921;-67
2023/02/09 02:09:57;;;;;;;;;;;;;;;1.42;100.00;102707.50;4954952;29;20016;-68
2023/02/09 02:12:23;;;;;;;;;;;;;;;1.42;100.00;102710.13;4954715;29;20454;-67
2023/02/09 02:14:48;;;;;;;;;;;;;;;1.45;100.00;102710.06;4954994;29;19910;-68
2023/02/09 02:17:14;;;;;;;;;;;;;;;1.43;100.00;102708.38;4954910;29;19917;-68
2023/02/09 02:19:59;;;;;;;;;;;;;;;1.42;100.00;102707.50;4954875;29;19914;-68
2023/02/09 02:22:35;;;;;;;;;;;;;;;1.41;100.00;102704.94;4954607;29;19911;-68
2023/02/09 02:25:19;;;;;;;;;;;;;;;1.45;100.00;102699.53;4954667;29;19910;-68
2023/02/09 02:27:44;;;;;;;;;;;;;;;1.37;100.00;102683.19;4954529;29;19910;-68
2023/02/09 02:30:29;;;;;;;;;;;;;;;1.40;100.00;102679.59;4954572;29;19916;-69
2023/02/09 02:32:58;;;;;;;;;;;;;;;1.41;100.00;102676.91;4954229;29;19910;-68
2023/02/09 02:35:36;;;;;;;;;;;;;;;1.40;100.00;102666.47;4954554;29;19914;-68
2023/02/09 02:38:05;;;;;;;;;;;;;;;1.38;100.00;102663.06;4954061;29;20266;-69
2023/02/09 02:40:45;;;;;;;;;;;;;;;1.33;100.00;102655.34;4954327;29;20056;-68
2023/02/09 02:43:10;;;;;;;;;;;;;;;1.32;100.00;102653.63;4937166;29;19910;-69
2023/02/09 02:45:41;;;;;;;;;;;;;;;1.34;100.00;102651.81;4954290;29;20278;-68
2023/02/09 02:48:09;;;;;;;;;;;;;;;1.30;100.00;102650.22;4954291;29;19918;-67
2023/02/09 02:50:38;;;;;;;;;;;;;;;1.32;100.00;102643.13;4954099;29;19910;-68
2023/02/09 02:53:05;;;;;;;;;;;;;;;1.36;100.00;102644.72;4954011;29;19933;-69
2023/02/09 02:55:32;;;;;;;;;;;;;;;1.39;100.00;102634.13;4954121;29;20115;-68
2023/02/09 02:58:00;;;;;;;;;;;;;;;1.33;100.00;102644.84;4953916;29;19911;-68
2023/02/09 03:00:47;;;;;;;;;;;;;;;1.37;100.00;102645.59;4954215;29;19944;-68
2023/02/09 03:03:25;;;;;;;;;;;;;;;1.35;100.00;102647.41;4953955;29;20425;-69
2023/02/09 03:05:52;;;;;;;;;;;;;;;1.34;100.00;102646.56;4953979;29;19921;-68
2023/02/09 03:08:46;;;;;;;;;;;;;;;1.35;100.00;102643.03;4955074;28;19921;-69
2023/02/09 03:11:11;;;;;;;;;;;;;;;1.34;100.00;102641.31;4957736;29;19921;-68
2023/02/09 03:13:44;;;;;;;;;;;;;;;1.38;100.00;102640.28;4957856;29;20333;-69
2023/02/09 03:16:12;;;;;;;;;;;;;;;1.37;100.00;102641.19;4957860;29;19945;-69
2023/02/09 03:18:47;;;;;;;;;;;;;;;1.36;100.00;102628.97;4957523;29;19914;-68
2023/02/09 03:21:12;;;;;;;;;;;;;;;1.38;100.00;102636.78;4957677;29;19921;-68
2023/02/09 03:23:53;;;;;;;;;;;;;;;1.42;100.00;102649.75;4957626;29;19910;-69
2023/02/09 03:26:24;;;;;;;;;;;;;;;1.40;100.00;102641.06;4957683;29;20430;-68
2023/02/09 03:28:52;;;;;;;;;;;;;;;1.39;100.00;102643.75;4957591;29;20247;-68
2023/02/09 03:31:17;;;;;;;;;;;;;;;1.36;100.00;102628.97;4957354;29;19977;-68
2023/02/09 03:33:43;;;;;;;;;;;;;;;1.41;100.00;102634.91;4957307;29;19910;-69
2023/02/09 03:36:13;;;;;;;;;;;;;;;1.40;100.00;102630.56;4957410;29;19936;-68
2023/02/09 03:38:38;;;;;;;;;;;;;;;1.44;100.00;102639.19;4957567;29;20314;-69
2023/02/09 03:41:03;;;;;;;;;;;;;;;1.41;100.00;102631.44;4957341;29;19910;-69
2023/02/09 03:46:12;;;;;;;;;;;;;;;1.48;100.00;102622.44;4957257;29;20008;-68
2023/02/09 03:48:38;;;;;;;;;;;;;;;1.46;100.00;102614.63;4957186;29;20001;-69
2023/02/09 03:51:05;;;;;;;;;;;;;;;1.44;100.00;102608.53;4957103;29;19953;-69
2023/02/09 03:53:32;;;;;;;;;;;;;;;1.45;100.00;102605.03;4957083;29;20008;-68
2023/02/09 03:55:57;;;;;;;;;;;;;;;1.44;100.00;102608.53;4956925;29;20274;-70
2023/02/09 03:58:23;;;;;;;;;;;;;;;1.39;100.00;102609.63;4956945;29;19910;-68
2023/02/09 04:00:48;;;;;;;;;;;;;;;1.41;100.00;102608.66;4956437;29;19910;-68
2023/02/09 04:03:13;;;;;;;;;;;;;;;1.41;100.00;102615.69;4956576;29;19917;-68
2023/02/09 04:05:39;;;;;;;;;;;;;;;1.38;100.00;102611.41;4939713;29;19911;-69
2023/02/09 04:08:05;;;;;;;;;;;;;;;1.37;100.00;102607.06;4956608;29;19918;-69
2023/02/09 04:10:30;;;;;;;;;;;;;;;1.37;100.00;102595.72;4956588;29;19989;-69
2023/02/09 04:12:55;;;;;;;;;;;;;;;1.39;100.00;102592.09;4956605;29;20397;-68
2023/02/09 04:15:21;;;;;;;;;;;;;;;1.39;100.00;102589.47;4956508;29;20362;-67
2023/02/09 04:17:46;;;;;;;;;;;;;;;1.40;100.00;102593.81;4956657;29;19966;-67
2023/02/09 04:20:11;;;;;;;;;;;;;;;1.40;100.00;102578.06;4956099;28;20359;-70
2023/02/09 04:22:37;;;;;;;;;;;;;;;1.43;100.00;102590.22;4956390;29;19941;-67
2023/02/09 04:28:24;;;;;;;;;;;;;;;1.39;100.00;102597.34;4956325;29;19965;-68
2023/02/09 04:30:53;;;;;;;;;;;;;;;1.38;100.00;102585.16;4956450;29;19910;-68
2023/02/09 04:33:19;;;;;;;;;;;;;;;1.37;100.00;102593.94;4956009;29;19916;-65
2023/02/09 04:35:44;;;;;;;;;;;;;;;1.36;100.00;102592.22;4954123;29;19910;-65
2023/02/09 04:38:10;;;;;;;;;;;;;;;1.37;100.00;102587.84;4954667;29;19919;-67
2023/02/09 04:40:35;;;;;;;;;;;;;;;1.35;100.00;102593.16;4956062;29;19917;-69
2023/02/09 04:43:00;;;;;;;;;;;;;;;1.35;100.00;102584.41;4937918;29;19914;-69
2023/02/09 04:45:26;;;;;;;;;;;;;;;1.31;100.00;102577.56;4938726;29;19914;-68
2023/02/09 04:48:07;;;;;;;;;;;;;;;1.30;100.00;102571.47;4955668;29;19957;-68
2023/02/09 04:50:32;;;;;;;;;;;;;;;1.29;100.00;102571.53;4955830;29;20425;-68
2023/02/09 04:52:58;;;;;;;;;;;;;;;1.34;100.00;102570.44;4938847;29;20005;-70
2023/02/09 04:55:23;;;;;;;;;;;;;;;1.32;100.00;102561.75;4955871;29;19910;-71
2023/02/09 05:00:32;;;;;;;;;;;;;;;1.33;100.00;102567.88;4938355;29;19917;-71
2023/02/09 05:02:58;;;;;;;;;;;;;;;1.32;100.00;102561.75;4955559;29;19910;-68
2023/02/09 05:05:23;;;;;;;;;;;;;;;1.32;100.00;102559.13;4955655;29;19951;-68
2023/02/09 05:07:50;;;;;;;;;;;;;;;1.28;100.00;102556.69;4955415;29;19969;-68
2023/02/09 05:10:16;;;;;;;;;;;;;;;1.18;100.00;102551.81;4955885;29;19914;-71
2023/02/09 05:12:41;;;;;;;;;;;;;;;1.19;100.00;102558.78;4956604;29;20250;-70
2023/02/09 05:15:06;;;;;;;;;;;;;;;1.22;100.00;102555.16;4955349;29;19914;-70
2023/02/09 05:17:32;;;;;;;;;;;;;;;1.21;100.00;102551.69;4937853;29;19918;-73
2023/02/09 05:19:58;;;;;;;;;;;;;;;1.25;100.00;102552.44;4955307;29;19910;-74
2023/02/09 05:22:23;;;;;;;;;;;;;;;1.30;100.00;102549.63;4954456;29;19910;-68
2023/02/09 05:24:49;;;;;;;;;;;;;;;1.28;100.00;102547.06;4955033;29;20354;-70
2023/02/09 05:27:15;;;;;;;;;;;;;;;1.29;100.00;102554.00;4954069;29;19918;-69
2023/02/09 05:29:40;;;;;;;;;;;;;;;1.21;100.00;102542.97;4955022;29;19910;-69
2023/02/09 05:32:05;;;;;;;;;;;;;;;1.10;99.42;102550.38;4954161;28;19910;-67
2023/02/09 05:34:30;;;;;;;;;;;;;;;1.07;98.65;102548.72;4955433;29;20005;-69
2023/02/09 05:36:56;;;;;;;;;;;;;;;0.99;98.19;102542.91;4955314;29;19914;-67
2023/02/09 05:39:21;;;;;;;;;;;;;;;0.86;98.35;102533.78;4955350;29;19917;-67
2023/02/09 05:44:30;;;;;;;;;;;;;;;0.60;97.88;102524.25;4955022;29;20357;-68
2023/02/09 05:46:56;;;;;;;;;;;;;;;0.56;98.62;102535.75;4954830;29;19933;-67
2023/02/09 05:49:21;;;;;;;;;;;;;;;0.48;98.15;102528.16;4954912;29;19986;-67
2023/02/09 05:51:46;;;;;;;;;;;;;;;0.47;98.31;102531.69;4937871;29;19914;-68
2023/02/09 05:54:12;;;;;;;;;;;;;;;0.43;99.27;102534.50;4954960;29;19910;-69
2023/02/09 05:56:38;;;;;;;;;;;;;;;0.42;99.58;102520.53;4954691;29;19918;-69
2023/02/09 05:59:03;;;;;;;;;;;;;;;0.36;100.00;102509.41;4954766;29;19918;-69
2023/02/09 06:01:31;;;;;;;;;;;;;;;0.33;100.00;102520.00;4937520;29;19961;-69
2023/02/09 06:03:56;;;;;;;;;;;;;;;0.37;100.00;102511.13;4954984;29;19914;-71
2023/02/09 06:06:24;;;;;;;;;;;;;;;0.32;100.00;102507.81;4954688;29;19914;-68
2023/02/09 06:08:50;;;;;;;;;;;;;;;0.30;100.00;102507.88;4954611;29;19914;-67
2023/02/09 06:11:16;;;;;;;;;;;;;;;0.25;100.00;102494.03;4954658;29;20026;-69
2023/02/09 06:13:41;;;;;;;;;;;;;;;0.28;100.00;102499.19;4954481;29;19911;-69
2023/02/09 06:16:07;;;;;;;;;;;;;;;0.33;100.00;102496.41;4954389;29;19921;-68
2023/02/09 06:18:32;;;;;;;;;;;;;;;0.39;100.00;102506.69;4953452;29;19911;-70
2023/02/09 06:20:57;;;;;;;;;;;;;;;0.42;100.00;102506.56;4954484;29;19910;-68
2023/02/09 06:23:23;;;;;;;;;;;;;;;0.37;99.70;102492.78;4954470;29;19966;-69
2023/02/09 06:25:52;;;;;;;;;;;;;;;0.30;100.00;102486.91;4954689;29;19914;-71
2023/02/09 06:28:18;;;;;;;;;;;;;;;0.23;100.00;102485.38;4953120;29;19914;-72
2023/02/09 06:30:43;;;;;;;;;;;;;;;0.23;99.62;102486.25;4954274;29;19969;-70
2023/02/09 06:33:08;;;;;;;;;;;;;;;0.23;99.48;102477.53;4955153;29;20000;-68
2023/02/09 06:35:34;;;;;;;;;;;;;;;0.19;98.66;102470.69;4937253;29;19937;-69
2023/02/09 06:37:59;;;;;;;;;;;;;;;0.14;98.84;102475.25;4954040;29;20391;-68
2023/02/09 06:40:24;;;;;;;;;;;;;;;0.09;98.14;102485.88;4954381;29;19917;-70
2023/02/09 06:42:50;;;;;;;;;;;;;;;0.06;97.55;102486.00;4954212;29;20354;-69
2023/02/09 06:45:16;;;;;;;;;;;;;;;0.04;97.27;102479.97;4957708;28;20357;-68
2023/02/09 06:47:42;;;;;;;;;;;;;;;-0.03;97.50;102481.06;4941062;29;20358;-70
2023/02/09 06:50:08;;;;;;;;;;;;;;;-0.08;97.56;102480.34;4923595;29;19921;-69
2023/02/09 06:52:34;;;;;;;;;;;;;;;-0.05;97.91;102469.78;4939009;29;19921;-68
2023/02/09 06:54:59;;;;;;;;;;;;;;;-0.06;97.89;102481.16;4937974;29;20283;-68
2023/02/09 06:57:24;;;;;;;;;;;;;;;-0.04;97.91;102468.88;4937661;29;19915;-68
2023/02/09 06:59:50;;;;;;;;;;;;;;;-0.07;97.98;102463.72;4937687;29;20010;-69
2023/02/09 07:02:15;;;;;;;;;;;;;;;-0.05;97.85;102470.63;4938853;29;19954;-68
2023/02/09 07:04:40;;;;;;;;;;;;;;;-0.07;96.62;102474.22;4938817;29;19911;-69
2023/02/09 07:07:07;;;;;;;;;;;;;;;-0.08;97.44;102473.34;4938818;29;19914;-71
2023/02/09 07:09:32;;;;;;;;;;;;;;;-0.10;96.91;102467.31;4938729;29;19914;-69
2023/02/09 07:11:57;;;;;;;;;;;;;;;-0.13;96.66;102450.84;4938606;29;20074;-70
2023/02/09 07:14:23;;;;;;;;;;;;;;;-0.15;96.53;102452.69;4936354;29;20006;-67
2023/02/09 07:16:48;;;;;;;;;;;;;;;-0.13;95.69;102441.25;4937733;29;19937;-69
2023/02/09 07:19:13;;;;;;;;;;;;;;;-0.08;95.80;102441.94;4938516;29;20371;-69
2023/02/09 07:21:39;;;;;;;;;;;;;;;-0.04;95.76;102433.06;4920915;29;19969;-69
2023/02/09 07:24:04;;;;;;;;;;;;;;;-0.05;96.15;102428.72;4921130;29;19918;-73
2023/02/09 07:26:30;;;;;;;;;;;;;;;-0.06;95.94;102437.50;4938578;29;20005;-72
2023/02/09 07:28:56;;;;;;;;;;;;;;;-0.07;96.39;102430.53;4938062;29;19918;-72
2023/02/09 07:31:21;;;;;;;;;;;;;;;-0.09;96.03;102426.28;4921232;29;19910;-71
2023/02/09 07:33:46;;;;;;;;;;;;;;;-0.06;96.18;102420.91;4938176;29;20396;-71
2023/02/09 07:36:12;;;;;;;;;;;;;;;-0.05;95.58;102417.38;4938679;29;19929;-71
2023/02/09 07:38:38;;;;;;;;;;;;;;;-0.03;95.82;102405.94;4938084;29;19962;-69
2023/02/09 07:41:04;;;;;;;;;;;;;;;-0.02;95.09;102406.81;4936736;29;19910;-76
2023/02/09 07:43:30;;;;;;;;;;;;;;;0.01;95.62;102401.47;4928253;29;20021;-71
2023/02/09 07:46:03;;;;;;;;;;;;;;;0.05;95.30;102400.47;4933162;29;19958;-71
2023/02/09 07:48:28;;;;;;;;;;;;;;;0.02;95.35;102392.72;4918863;29;19910;-70
2023/02/09 07:50:54;;;;;;;;;;;;;;;0.01;94.74;102401.47;4918806;29;20005;-70
2023/02/09 07:53:19;;;;;;;;;;;;;;;-0.01;93.87;102385.78;4918794;29;20067;-71
2023/02/09 07:55:44;;;;;;;;;;;;;;;0.04;94.57;102396.13;4918609;29;19911;-69
2023/02/09 07:58:10;;;;;;;;;;;;;;;0.06;93.95;102383.84;4918953;29;20009;-70
2023/02/09 08:00:38;;;;;;;;;;;;;;;0.06;94.32;102394.31;4919111;29;19911;-70
2023/02/09 08:03:04;;;;;;;;;;;;;;;0.11;94.46;102384.50;4920840;29;19968;-71
2023/02/09 08:05:32;;;;;;;;;;;;;;;0.16;93.51;102385.19;4923022;29;19911;-70
2023/02/09 08:07:59;;;;;;;;;;;;;;;0.19;93.57;102379.84;4923270;29;19941;-69
2023/02/09 08:10:25;;;;;;;;;;;;;;;0.20;92.97;102381.53;4920459;29;20006;-69
2023/02/09 08:13:03;;;;;;;;;;;;;;;0.22;92.53;102379.72;4921255;29;19958;-70
2023/02/09 08:15:29;;;;;;;;;;;;;;;0.21;92.48;102371.91;4904585;29;19911;-68
2023/02/09 08:17:55;;;;;;;;;;;;;;;0.29;93.22;102375.13;4902170;29;20355;-69
2023/02/09 08:20:23;;;;;;;;;;;;;;;0.30;92.00;102366.38;4918465;29;20001;-67
2023/02/09 08:22:50;;;;;;;;;;;;;;;0.33;91.95;102360.16;4932837;29;19911;-69
2023/02/09 08:25:18;;;;;;;;;;;;;;;0.33;91.37;102366.25;4918117;29;20386;-68
2023/02/09 08:27:44;;;;;;;;;;;;;;;0.36;91.52;102370.50;4918384;29;19922;-69
2023/02/09 08:30:11;;;;;;;;;;;;;;;0.40;91.90;102362.47;4918293;29;19966;-67
2023/02/09 08:32:37;;;;;;;;;;;;;;;0.53;92.47;102362.84;4932923;29;20021;-67
2023/02/09 08:35:02;;;;;;;;;;;;;;;0.58;91.41;102360.91;4918436;29;20002;-67
2023/02/09 08:37:28;;;;;;;;;;;;;;;0.61;91.11;102363.41;4902120;29;19910;-67
2023/02/09 08:39:54;;;;;;;;;;;;;;;0.57;90.32;102348.69;4918680;29;20271;-67
2023/02/09 08:42:19;;;;;;;;;;;;;;;0.53;90.61;102362.84;4917558;29;20356;-69
2023/02/09 08:44:44;;;;;;;;;;;;;;;0.56;90.43;102344.38;4917541;29;20381;-67
2023/02/09 08:47:10;;;;;;;;;;;;;;;0.49;90.83;102340.28;4919025;29;20290;-67
2023/02/09 08:49:38;;;;;;;;;;;;;;;0.47;90.78;102344.72;4901649;29;19911;-67
2023/02/09 08:52:03;;;;;;;;;;;;;;;0.50;90.51;102328.88;4919342;29;19915;-67
2023/02/09 08:54:29;;;;;;;;;;;;;;;0.55;90.78;102335.66;4919508;29;19911;-66
2023/02/09 08:56:54;;;;;;;;;;;;;;;0.58;90.90;102332.09;4901270;29;19919;-65
2023/02/09 08:59:20;;;;;;;;;;;;;;;0.61;90.96;102335.44;4918744;29;19911;-67
2023/02/09 09:01:46;;;;;;;;;;;;;;;0.61;90.17;102324.94;4917795;29;19911;-67
2023/02/09 09:04:11;;;;;;;;;;;;;;;0.62;89.67;102323.19;4917936;29;19911;-68
2023/02/09 09:06:40;;;;;;;;;;;;;;;0.55;89.44;102313.81;4917494;29;19918;-65
2023/02/09 09:09:07;;;;;;;;;;;;;;;0.63;89.41;102309.16;4917559;29;19915;-67
2023/02/09 09:11:32;;;;;;;;;;;;;;;0.64;89.13;102304.75;4917856;29;20036;-68
2023/02/09 09:13:58;;;;;;;;;;;;;;;0.68;88.84;102304.56;4917559;29;19910;-67
2023/02/09 09:16:23;;;;;;;;;;;;;;;0.72;88.39;102311.41;4917760;29;20301;-69
2023/02/09 09:18:49;;;;;;;;;;;;;;;0.74;88.46;102296.44;4917334;29;19911;-70
2023/02/09 09:21:16;;;;;;;;;;;;;;;0.80;88.17;102288.31;4917238;29;19918;-69
2023/02/09 09:23:51;;;;;;;;;;;;;;;0.78;87.08;102284.06;4917542;29;19911;-68
2023/02/09 09:26:43;;;;;;;;;;;;;;;0.73;87.81;102279.00;4882335;29;19994;-69
2023/02/09 09:29:09;;;;;;;;;;;;;;;0.72;87.12;102264.19;4917184;29;19922;-68
2023/02/09 09:31:36;;;;;;;;;;;;;;;0.80;87.75;102266.50;4917183;29;19911;-67
2023/02/09 09:34:02;;;;;;;;;;;;;;;0.84;87.71;102258.44;4916902;29;19967;-67
2023/02/09 09:36:27;;;;;;;;;;;;;;;0.85;86.70;102254.88;4917415;29;19919;-67
2023/02/09 09:38:53;;;;;;;;;;;;;;;0.85;87.02;102254.88;4917581;29;20010;-67
2023/02/09 09:41:23;;;;;;;;;;;;;;;0.93;86.81;102262.47;4916918;29;19911;-69
2023/02/09 09:43:49;;;;;;;;;;;;;;;1.00;86.67;102249.94;4917326;29;19915;-67
2023/02/09 09:46:20;;;;;;;;;;;;;;;0.98;86.15;102255.25;4900114;29;20323;-67
2023/02/09 09:48:53;;;;;;;;;;;;;;;0.96;85.30;102243.97;4916894;29;19983;-69
2023/02/09 09:51:25;;;;;;;;;;;;;;;0.97;85.49;102243.06;4900089;29;19911;-67
2023/02/09 09:53:52;;;;;;;;;;;;;;;1.09;85.94;102246.91;4917010;29;19933;-72
2023/02/09 09:56:19;;;;;;;;;;;;;;;1.13;85.67;102243.25;4916931;29;19978;-70
2023/02/09 09:58:46;;;;;;;;;;;;;;;1.19;85.89;102243.00;4916654;29;20359;-66
2023/02/09 10:01:12;;;;;;;;;;;;;;;1.11;85.14;102245.06;4899909;29;20005;-67
2023/02/09 10:03:38;;;;;;;;;;;;;;;1.07;84.85;102243.50;4917116;29;19970;-67
2023/02/09 10:06:17;;;;;;;;;;;;;;;1.07;84.89;102233.88;4916672;29;19961;-71
2023/02/09 10:08:48;;;;;;;;;;;;;;;1.10;85.22;102225.00;4916573;29;19915;-69
2023/02/09 10:11:15;;;;;;;;;;;;;;;1.19;84.96;102227.25;4916654;29;19911;-70
2023/02/09 10:13:48;;;;;;;;;;;;;;;1.19;84.66;102230.72;4916894;29;19911;-68
2023/02/09 10:16:18;;;;;;;;;;;;;;;1.12;84.31;102220.53;4916779;29;19918;-69
2023/02/09 10:18:44;;;;;;;;;;;;;;;1.11;84.57;102224.94;4915877;29;20488;-71
2023/02/09 10:21:12;;;;;;;;;;;;;;;1.09;84.90;102204.94;4883688;29;20005;-66
2023/02/09 10:23:44;;;;;;;;;;;;;;;0.96;84.96;102217.75;4916284;29;20067;-67
2023/02/09 10:26:10;;;;;;;;;;;;;;;0.99;84.56;102206.25;4916387;29;20019;-68
2023/02/09 10:28:40;;;;;;;;;;;;;;;1.02;85.08;102199.09;4899694;29;20267;-68
2023/02/09 10:31:31;;;;;;;;;;;;;;;1.08;84.69;102208.47;4916612;29;19922;-67
2023/02/09 10:33:57;;;;;;;;;;;;;;;0.98;84.34;102191.44;4916298;29;19911;-67
2023/02/09 10:36:46;;;;;;;;;;;;;;;0.92;84.90;102190.78;4916120;29;19974;-65
2023/02/09 10:39:11;;;;;;;;;;;;;;;0.95;85.52;102196.81;4922983;29;19910;-68
2023/02/09 10:41:38;;;;;;;;;;;;;;;0.91;84.69;102181.22;4934667;29;19919;-66
2023/02/09 10:44:15;;;;;;;;;;;;;;;0.90;84.75;102176.03;4932289;29;20303;-67
2023/02/09 10:46:40;;;;;;;;;;;;;;;0.94;84.78;102172.38;4934609;29;19911;-65
2023/02/09 10:49:25;;;;;;;;;;;;;;;0.97;85.50;102179.25;4935233;29;20007;-67
2023/02/09 10:52:13;;;;;;;;;;;;;;;0.98;85.29;102173.94;4933387;29;19917;-66
2023/02/09 10:54:46;;;;;;;;;;;;;;;0.97;85.32;102174.00;4935268;29;20363;-68
2023/02/09 10:57:25;;;;;;;;;;;;;;;0.99;85.20;102165.13;4935863;29;19953;-69
2023/02/09 11:00:01;;;;;;;;;;;;;;;1.03;84.99;102168.47;4933992;29;19910;-67
2023/02/09 11:02:37;;;;;;;;;;;;;;;1.05;85.46;102167.50;4933926;29;19950;-68
2023/02/09 11:05:23;;;;;;;;;;;;;;;1.02;84.27;102156.28;4935258;29;19911;-68
2023/02/09 11:07:52;;;;;;;;;;;;;;;0.95;84.09;102154.84;4927835;29;19914;-69
2023/02/09 11:10:19;;;;;;;;;;;;;;;1.00;84.28;102152.88;4934507;29;19925;-67
2023/02/09 11:12:44;;;;;;;;;;;;;;;0.95;83.23;102147.84;4931864;29;19965;-67
2023/02/09 11:15:13;;;;;;;;;;;;;;;1.00;83.25;102142.38;4917463;29;19998;-68
2023/02/09 11:17:44;;;;;;;;;;;;;;;1.03;83.84;102150.13;4934445;29;19917;-68
2023/02/09 11:20:16;;;;;;;;;;;;;;;0.97;83.23;102132.88;4934514;29;20393;-67
2023/02/09 11:22:41;;;;;;;;;;;;;;;1.01;83.33;102125.72;4934690;29;19910;-71
2023/02/09 11:25:13;;;;;;;;;;;;;;;1.09;83.42;102127.06;4931382;29;20240;-68
2023/02/09 11:27:38;;;;;;;;;;;;;;;1.15;83.05;102118.91;4935040;29;19910;-67
2023/02/09 11:30:10;;;;;;;;;;;;;;;1.07;82.24;102113.16;4937298;29;19910;-69
2023/02/09 11:32:47;;;;;;;;;;;;;;;1.12;82.56;102120.84;4945101;29;19940;-68
2023/02/09 11:35:15;;;;;;;;;;;;;;;1.14;82.61;102111.13;4940477;29;19910;-71
2023/02/09 11:37:48;;;;;;;;;;;;;;;1.15;81.99;102112.81;4941188;29;19911;-83
2023/02/09 11:40:32;;;;;;;;;;;;;;;1.17;82.36;102109.25;4948148;29;19911;-75
2023/02/09 11:42:58;;;;;;;;;;;;;;;1.27;82.66;102112.28;4931132;29;19922;-74
2023/02/09 11:45:23;;;;;;;;;;;;;;;1.33;82.43;102114.63;4952185;29;19911;-77
2023/02/09 11:48:01;;;;;;;;;;;;;;;1.35;81.24;102119.81;4950698;29;19918;-74
2023/02/09 11:50:29;;;;;;;;;;;;;;;1.40;81.27;102116.03;4946129;29;19934;-74
2023/02/09 11:52:58;;;;;;;;;;;;;;;1.39;80.79;102114.34;4941084;29;19915;-76
2023/02/09 11:55:28;;;;;;;;;;;;;;;1.40;80.74;102105.53;4939590;29;19933;-76
2023/02/09 11:58:01;;;;;;;;;;;;;;;1.40;81.03;102104.69;4937981;29;20014;-75
2023/02/09 12:00:30;;;;;;;;;;;;;;;1.38;80.69;102101.28;4938028;29;19914;-74
2023/02/09 12:03:10;;;;;;;;;;;;;;;1.33;81.41;102098.88;4928105;29;19910;-73
2023/02/09 12:05:37;;;;;;;;;;;;;;;1.29;80.88;102086.81;4919582;29;19918;-71
2023/02/09 12:08:17;;;;;;;;;;;;;;;1.29;80.89;102083.34;4919220;29;20371;-72
2023/02/09 12:10:50;;;;;;;;;;;;;;;1.25;81.37;102074.75;4919556;29;20017;-71
2023/02/09 12:13:22;;;;;;;;;;;;;;;1.32;81.68;102076.19;4919286;29;19911;-71
2023/02/09 12:15:49;;;;;;;;;;;;;;;1.36;80.43;102074.25;4918732;29;20394;-70
2023/02/09 12:18:18;;;;;;;;;;;;;;;1.34;80.67;102074.31;4918469;29;20271;-72
2023/02/09 12:20:48;;;;;;;;;;;;;;;1.34;80.22;102069.09;4919054;29;19954;-71
2023/02/09 12:23:13;;;;;;;;;;;;;;;1.46;81.36;102065.91;4918822;29;19954;-73
2023/02/09 12:25:48;;;;;;;;;;;;;;;1.54;80.38;102057.66;4918829;29;19950;-74
2023/02/09 12:28:16;;;;;;;;;;;;;;;1.56;80.05;102066.31;4918891;29;19939;-73
2023/02/09 12:30:41;;;;;;;;;;;;;;;1.45;78.93;102061.56;4918905;29;19958;-73
2023/02/09 12:33:36;;;;;;;;;;;;;;;1.31;79.03;102057.88;4917757;29;20053;-73
2023/02/09 12:36:05;;;;;;;;;;;;;;;1.30;79.24;102048.31;4901745;29;20263;-71
2023/02/09 12:38:49;;;;;;;;;;;;;;;1.17;79.22;102050.66;4918088;29;19911;-73
2023/02/09 12:41:15;;;;;;;;;;;;;;;1.12;79.56;102063.09;4917609;29;20382;-76
2023/02/09 12:43:40;;;;;;;;;;;;;;;0.99;78.83;102056.72;4917901;29;19917;-74
2023/02/09 12:46:09;;;;;;;;;;;;;;;0.97;80.06;102055.94;4918128;29;19911;-68
2023/02/09 12:48:44;;;;;;;;;;;;;;;1.00;79.31;102058.44;4917926;29;19919;-69
2023/02/09 12:51:29;;;;;;;;;;;;;;;1.04;79.93;102041.63;4917990;29;20347;-68
2023/02/09 12:53:55;;;;;;;;;;;;;;;1.04;80.58;102046.88;4917763;29;19918;-71
2023/02/09 12:56:20;;;;;;;;;;;;;;;0.99;80.66;102044.47;4917881;29;19911;-68
2023/02/09 12:58:48;;;;;;;;;;;;;;;0.92;79.56;102049.16;4900257;29;20410;-68
2023/02/09 13:01:15;;;;;;;;;;;;;;;0.91;80.05;102039.56;4917560;29;19911;-71
2023/02/09 13:03:42;;;;;;;;;;;;;;;0.87;80.12;102048.50;4917576;29;19910;-70